sensor_id;sensor_type;location;lat;lon;timestamp;pressure;altitude;pressure_sealevel;temperature
42197;BMP280;27866;48.146;17.098;2022-12-17T00:02:33;99419.06;;;3.64
42197;BMP280;27866;48.146;17.098;2022-12-17T00:07:03;99427.88;;;3.59
42197;BMP280;27866;48.146;17.098;2022-12-17T00:11:33;99416.88;;;3.57
42197;BMP280;27866;48.146;17.098;2022-12-17T00:16:02;99407.72;;;3.51
42197;BMP280;27866;48.146;17.098;2022-12-17T00:20:32;99408.78;;;3.47
42197;BMP280;27866;48.146;17.098;2022-12-17T00:25:02;99398.69;;;3.45
42197;BMP280;27866;48.146;17.098;2022-12-17T00:29:32;99400.75;;;3.37
42197;BMP280;27866;48.146;17.098;2022-12-17T00:34:02;99420.47;;;3.35
42197;BMP280;27866;48.146;17.098;2022-12-17T00:38:32;99425.66;;;3.33
42197;BMP280;27866;48.146;17.098;2022-12-17T00:43:11;99424.22;;;3.28
42197;BMP280;27866;48.146;17.098;2022-12-17T00:47:42;99448.88;;;3.29
42197;BMP280;27866;48.146;17.098;2022-12-17T00:52:11;99448.13;;;3.27
42197;BMP280;27866;48.146;17.098;2022-12-17T00:56:41;99459.03;;;3.31
42197;BMP280;27866;48.146;17.098;2022-12-17T01:01:11;99467.88;;;3.24
42197;BMP280;27866;48.146;17.098;2022-12-17T01:05:41;99480.75;;;3.22
42197;BMP280;27866;48.146;17.098;2022-12-17T01:10:11;99459.03;;;3.31
42197;BMP280;27866;48.146;17.098;2022-12-17T01:14:41;99442.88;;;3.30
42197;BMP280;27866;48.146;17.098;2022-12-17T01:19:12;99417.97;;;3.33
42197;BMP280;27866;48.146;17.098;2022-12-17T01:23:41;99408.03;;;3.46
42197;BMP280;27866;48.146;17.098;2022-12-17T01:28:11;99420.81;;;3.46
42197;BMP280;27866;48.146;17.098;2022-12-17T01:32:41;99458.91;;;3.51
42197;BMP280;27866;48.146;17.098;2022-12-17T01:37:13;99477.13;;;3.46
42197;BMP280;27866;48.146;17.098;2022-12-17T01:41:43;99514.31;;;3.52
42197;BMP280;27866;48.146;17.098;2022-12-17T01:46:13;99527.81;;;3.56
42197;BMP280;27866;48.146;17.098;2022-12-17T01:50:49;99554.56;;;3.49
42197;BMP280;27866;48.146;17.098;2022-12-17T01:55:20;99567.38;;;3.49
42197;BMP280;27866;48.146;17.098;2022-12-17T02:00:07;99598.09;;;3.49
42197;BMP280;27866;48.146;17.098;2022-12-17T02:04:38;99601.09;;;3.39
42197;BMP280;27866;48.146;17.098;2022-12-17T02:09:27;99632.56;;;3.41
42197;BMP280;27866;48.146;17.098;2022-12-17T02:14:19;99657.38;;;3.39
42197;BMP280;27866;48.146;17.098;2022-12-17T02:18:59;99693.47;;;3.52
42197;BMP280;27866;48.146;17.098;2022-12-17T02:24:07;99699.09;;;3.60
42197;BMP280;27866;48.146;17.098;2022-12-17T02:28:43;99678.38;;;3.66
42197;BMP280;27866;48.146;17.098;2022-12-17T02:33:15;99663.78;;;3.68
42197;BMP280;27866;48.146;17.098;2022-12-17T02:37:49;99670.53;;;3.69
42197;BMP280;27866;48.146;17.098;2022-12-17T02:42:19;99661.22;;;3.68
42197;BMP280;27866;48.146;17.098;2022-12-17T02:46:51;99658.00;;;3.63
42197;BMP280;27866;48.146;17.098;2022-12-17T02:51:23;99653.97;;;3.58
42197;BMP280;27866;48.146;17.098;2022-12-17T02:55:53;99652.19;;;3.60
42197;BMP280;27866;48.146;17.098;2022-12-17T03:00:23;99622.50;;;3.56
42197;BMP280;27866;48.146;17.098;2022-12-17T03:04:53;99639.56;;;3.55
42197;BMP280;27866;48.146;17.098;2022-12-17T03:09:23;99642.59;;;3.64
42197;BMP280;27866;48.146;17.098;2022-12-17T03:13:53;99651.09;;;3.65
42197;BMP280;27866;48.146;17.098;2022-12-17T03:18:23;99670.69;;;3.66
42197;BMP280;27866;48.146;17.098;2022-12-17T03:23:04;99681.09;;;3.61
42197;BMP280;27866;48.146;17.098;2022-12-17T03:27:34;99683.75;;;3.60
42197;BMP280;27866;48.146;17.098;2022-12-17T03:32:04;99669.41;;;3.56
42197;BMP280;27866;48.146;17.098;2022-12-17T03:36:34;99678.88;;;3.54
42197;BMP280;27866;48.146;17.098;2022-12-17T03:41:05;99679.91;;;3.50
42197;BMP280;27866;48.146;17.098;2022-12-17T03:45:35;99672.09;;;3.53
42197;BMP280;27866;48.146;17.098;2022-12-17T03:50:06;99677.19;;;3.53
42197;BMP280;27866;48.146;17.098;2022-12-17T03:54:36;99681.38;;;3.56
42197;BMP280;27866;48.146;17.098;2022-12-17T03:59:07;99672.56;;;3.62
42197;BMP280;27866;48.146;17.098;2022-12-17T04:03:37;99678.38;;;3.66
42197;BMP280;27866;48.146;17.098;2022-12-17T04:08:07;99702.44;;;3.62
42197;BMP280;27866;48.146;17.098;2022-12-17T04:12:36;99708.16;;;3.67
42197;BMP280;27866;48.146;17.098;2022-12-17T04:17:06;99706.19;;;3.73
42197;BMP280;27866;48.146;17.098;2022-12-17T04:21:36;99714.72;;;3.74
42197;BMP280;27866;48.146;17.098;2022-12-17T04:26:05;99717.41;;;3.71
42197;BMP280;27866;48.146;17.098;2022-12-17T04:30:35;99724.97;;;3.74
42197;BMP280;27866;48.146;17.098;2022-12-17T04:35:06;99722.59;;;3.69
42197;BMP280;27866;48.146;17.098;2022-12-17T04:39:35;99741.28;;;3.71
42197;BMP280;27866;48.146;17.098;2022-12-17T04:44:05;99727.63;;;3.71
42197;BMP280;27866;48.146;17.098;2022-12-17T04:48:35;99715.75;;;3.70
42197;BMP280;27866;48.146;17.098;2022-12-17T04:53:06;99700.25;;;3.73
42197;BMP280;27866;48.146;17.098;2022-12-17T04:57:35;99693.31;;;3.75
42197;BMP280;27866;48.146;17.098;2022-12-17T05:02:05;99709.47;;;3.76
42197;BMP280;27866;48.146;17.098;2022-12-17T05:06:35;99707.28;;;3.68
42197;BMP280;27866;48.146;17.098;2022-12-17T05:11:05;99718.63;;;3.62
42197;BMP280;27866;48.146;17.098;2022-12-17T05:15:35;99734.78;;;3.63
42197;BMP280;27866;48.146;17.098;2022-12-17T05:20:05;99751.84;;;3.64
42197;BMP280;27866;48.146;17.098;2022-12-17T05:24:35;99756.25;;;3.61
42197;BMP280;27866;48.146;17.098;2022-12-17T05:29:04;99782.81;;;3.58
42197;BMP280;27866;48.146;17.098;2022-12-17T05:33:34;99788.78;;;3.57
42197;BMP280;27866;48.146;17.098;2022-12-17T05:38:07;99826.91;;;3.64
42197;BMP280;27866;48.146;17.098;2022-12-17T05:42:37;99836.13;;;3.68
42197;BMP280;27866;48.146;17.098;2022-12-17T05:47:07;99839.72;;;3.64
42197;BMP280;27866;48.146;17.098;2022-12-17T05:51:37;99842.97;;;3.68
42197;BMP280;27866;48.146;17.098;2022-12-17T05:56:07;99843.84;;;3.67
42197;BMP280;27866;48.146;17.098;2022-12-17T06:00:37;99850.75;;;3.65
42197;BMP280;27866;48.146;17.098;2022-12-17T06:05:08;99851.53;;;3.67
42197;BMP280;27866;48.146;17.098;2022-12-17T06:09:38;99879.13;;;3.61
42197;BMP280;27866;48.146;17.098;2022-12-17T06:14:07;99878.91;;;3.65
42197;BMP280;27866;48.146;17.098;2022-12-17T06:18:37;99884.66;;;3.71
42197;BMP280;27866;48.146;17.098;2022-12-17T06:23:10;99906.59;;;3.76
42197;BMP280;27866;48.146;17.098;2022-12-17T06:27:40;99914.22;;;3.78
42197;BMP280;27866;48.146;17.098;2022-12-17T06:32:10;99915.06;;;3.78
42197;BMP280;27866;48.146;17.098;2022-12-17T06:36:47;99918.53;;;3.77
42197;BMP280;27866;48.146;17.098;2022-12-17T06:41:17;99921.88;;;3.79
42197;BMP280;27866;48.146;17.098;2022-12-17T06:45:47;99943.47;;;3.73
42197;BMP280;27866;48.146;17.098;2022-12-17T06:50:16;99972.41;;;3.75
42197;BMP280;27866;48.146;17.098;2022-12-17T06:54:46;99966.41;;;3.76
42197;BMP280;27866;48.146;17.098;2022-12-17T06:59:16;99975.97;;;3.71
42197;BMP280;27866;48.146;17.098;2022-12-17T07:03:46;99990.81;;;3.84
42197;BMP280;27866;48.146;17.098;2022-12-17T07:08:16;100009.28;;;3.91
42197;BMP280;27866;48.146;17.098;2022-12-17T07:13:07;100016.31;;;4.07
42197;BMP280;27866;48.146;17.098;2022-12-17T07:17:36;100022.94;;;4.13
42197;BMP280;27866;48.146;17.098;2022-12-17T07:22:06;100029.53;;;4.18
42197;BMP280;27866;48.146;17.098;2022-12-17T07:26:36;100035.88;;;4.31
42197;BMP280;27866;48.146;17.098;2022-12-17T07:31:05;100038.25;;;4.35
42197;BMP280;27866;48.146;17.098;2022-12-17T07:35:35;100045.06;;;4.36
42197;BMP280;27866;48.146;17.098;2022-12-17T07:40:06;100040.88;;;4.33
42197;BMP280;27866;48.146;17.098;2022-12-17T07:44:36;100061.53;;;4.29
42197;BMP280;27866;48.146;17.098;2022-12-17T07:49:06;100065.59;;;4.34
42197;BMP280;27866;48.146;17.098;2022-12-17T07:53:36;100083.38;;;4.39
42197;BMP280;27866;48.146;17.098;2022-12-17T07:58:10;100074.72;;;4.41
42197;BMP280;27866;48.146;17.098;2022-12-17T08:02:40;100089.25;;;4.41
42197;BMP280;27866;48.146;17.098;2022-12-17T08:07:09;100085.53;;;4.28
42197;BMP280;27866;48.146;17.098;2022-12-17T08:11:46;100087.94;;;4.52
42197;BMP280;27866;48.146;17.098;2022-12-17T08:16:16;100098.63;;;4.63
42197;BMP280;27866;48.146;17.098;2022-12-17T08:20:46;100110.00;;;4.56
42197;BMP280;27866;48.146;17.098;2022-12-17T08:25:15;100102.69;;;4.68
42197;BMP280;27866;48.146;17.098;2022-12-17T08:29:45;100105.31;;;4.66
42197;BMP280;27866;48.146;17.098;2022-12-17T08:34:15;100116.31;;;4.89
42197;BMP280;27866;48.146;17.098;2022-12-17T08:38:45;100116.56;;;5.03
42197;BMP280;27866;48.146;17.098;2022-12-17T08:43:14;100119.22;;;5.20
42197;BMP280;27866;48.146;17.098;2022-12-17T08:47:44;100125.63;;;5.11
42197;BMP280;27866;48.146;17.098;2022-12-17T08:52:14;100133.91;;;4.98
42197;BMP280;27866;48.146;17.098;2022-12-17T08:56:44;100133.78;;;4.80
42197;BMP280;27866;48.146;17.098;2022-12-17T09:01:14;100128.97;;;4.73
42197;BMP280;27866;48.146;17.098;2022-12-17T09:05:43;100128.47;;;4.84
42197;BMP280;27866;48.146;17.098;2022-12-17T09:10:13;100118.81;;;4.91
42197;BMP280;27866;48.146;17.098;2022-12-17T09:14:43;100134.34;;;5.07
42197;BMP280;27866;48.146;17.098;2022-12-17T09:19:13;100149.91;;;5.43
42197;BMP280;27866;48.146;17.098;2022-12-17T09:23:42;100153.38;;;5.42
42197;BMP280;27866;48.146;17.098;2022-12-17T09:28:12;100145.78;;;5.39
42197;BMP280;27866;48.146;17.098;2022-12-17T09:32:42;100156.06;;;5.58
42197;BMP280;27866;48.146;17.098;2022-12-17T09:37:11;100147.34;;;5.43
42197;BMP280;27866;48.146;17.098;2022-12-17T09:46:47;100167.75;;;5.46
42197;BMP280;27866;48.146;17.098;2022-12-17T09:51:25;100173.41;;;5.53
42197;BMP280;27866;48.146;17.098;2022-12-17T09:55:55;100181.53;;;5.83
42197;BMP280;27866;48.146;17.098;2022-12-17T10:00:27;100197.19;;;5.78
42197;BMP280;27866;48.146;17.098;2022-12-17T10:04:58;100183.50;;;5.77
42197;BMP280;27866;48.146;17.098;2022-12-17T10:09:30;100209.72;;;5.85
42197;BMP280;27866;48.146;17.098;2022-12-17T10:14:10;100190.97;;;6.01
42197;BMP280;27866;48.146;17.098;2022-12-17T10:18:41;100181.69;;;5.98
42197;BMP280;27866;48.146;17.098;2022-12-17T10:27:52;100223.31;;;5.87
42197;BMP280;27866;48.146;17.098;2022-12-17T10:32:24;100232.13;;;5.62
42197;BMP280;27866;48.146;17.098;2022-12-17T10:36:54;100238.19;;;5.60
42197;BMP280;27866;48.146;17.098;2022-12-17T10:41:33;100246.88;;;5.77
42197;BMP280;27866;48.146;17.098;2022-12-17T10:46:03;100251.31;;;5.73
42197;BMP280;27866;48.146;17.098;2022-12-17T10:50:44;100241.47;;;5.63
42197;BMP280;27866;48.146;17.098;2022-12-17T10:55:27;100266.34;;;5.63
42197;BMP280;27866;48.146;17.098;2022-12-17T10:59:57;100272.38;;;5.62
42197;BMP280;27866;48.146;17.098;2022-12-17T11:04:52;100289.56;;;5.39
42197;BMP280;27866;48.146;17.098;2022-12-17T11:14:13;100287.69;;;5.44
42197;BMP280;27866;48.146;17.098;2022-12-17T11:19:08;100285.91;;;5.44
42197;BMP280;27866;48.146;17.098;2022-12-17T11:23:45;100300.06;;;5.54
42197;BMP280;27866;48.146;17.098;2022-12-17T11:28:26;100290.19;;;5.66
42197;BMP280;27866;48.146;17.098;2022-12-17T11:38:20;100320.75;;;5.72
42197;BMP280;27866;48.146;17.098;2022-12-17T11:43:27;100311.41;;;5.90
42197;BMP280;27866;48.146;17.098;2022-12-17T11:48:31;100322.63;;;5.68
42197;BMP280;27866;48.146;17.098;2022-12-17T11:53:34;100316.47;;;5.51
42197;BMP280;27866;48.146;17.098;2022-12-17T11:58:53;100324.66;;;5.40
42197;BMP280;27866;48.146;17.098;2022-12-17T12:32:19;100366.66;;;6.00
42197;BMP280;27866;48.146;17.098;2022-12-17T12:36:50;100370.16;;;6.18
42197;BMP280;27866;48.146;17.098;2022-12-17T12:55:44;100369.81;;;5.66
42197;BMP280;27866;48.146;17.098;2022-12-17T13:05:52;100385.28;;;5.42
42197;BMP280;27866;48.146;17.098;2022-12-17T13:10:28;100408.94;;;5.29
42197;BMP280;27866;48.146;17.098;2022-12-17T13:23:36;100406.88;;;4.94
42197;BMP280;27866;48.146;17.098;2022-12-17T13:27:48;100409.94;;;4.81
42197;BMP280;27866;48.146;17.098;2022-12-17T13:36:24;100413.00;;;4.68
42197;BMP280;27866;48.146;17.098;2022-12-17T13:40:53;100412.31;;;4.63
42197;BMP280;27866;48.146;17.098;2022-12-17T13:45:15;100413.31;;;4.59
42197;BMP280;27866;48.146;17.098;2022-12-17T13:49:29;100425.47;;;4.54
42197;BMP280;27866;48.146;17.098;2022-12-17T13:53:58;100429.88;;;4.51
42197;BMP280;27866;48.146;17.098;2022-12-17T13:58:32;100445.47;;;4.45
42197;BMP280;27866;48.146;17.098;2022-12-17T14:02:43;100447.31;;;4.40
42197;BMP280;27866;48.146;17.098;2022-12-17T14:07:02;100463.69;;;4.36
42197;BMP280;27866;48.146;17.098;2022-12-17T14:11:14;100468.25;;;4.29
42197;BMP280;27866;48.146;17.098;2022-12-17T14:15:48;100476.16;;;4.21
42197;BMP280;27866;48.146;17.098;2022-12-17T14:24:19;100492.69;;;4.13
42197;BMP280;27866;48.146;17.098;2022-12-17T14:28:36;100508.16;;;4.10
42197;BMP280;27866;48.146;17.098;2022-12-17T14:32:47;100522.00;;;4.05
42197;BMP280;27866;48.146;17.098;2022-12-17T14:36:59;100520.47;;;4.00
42197;BMP280;27866;48.146;17.098;2022-12-17T14:41:12;100520.53;;;3.97
42197;BMP280;27866;48.146;17.098;2022-12-17T14:45:52;100518.22;;;3.90
42197;BMP280;27866;48.146;17.098;2022-12-17T14:50:34;100525.16;;;3.86
42197;BMP280;27866;48.146;17.098;2022-12-17T14:54:46;100518.47;;;3.82
42197;BMP280;27866;48.146;17.098;2022-12-17T14:58:57;100523.69;;;3.79
42197;BMP280;27866;48.146;17.098;2022-12-17T15:03:32;100531.38;;;3.79
42197;BMP280;27866;48.146;17.098;2022-12-17T15:07:43;100533.16;;;3.76
42197;BMP280;27866;48.146;17.098;2022-12-17T15:11:55;100552.00;;;3.75
42197;BMP280;27866;48.146;17.098;2022-12-17T15:16:07;100552.84;;;3.76
42197;BMP280;27866;48.146;17.098;2022-12-17T15:20:21;100548.56;;;3.75
42197;BMP280;27866;48.146;17.098;2022-12-17T15:24:32;100560.53;;;3.76
42197;BMP280;27866;48.146;17.098;2022-12-17T15:28:44;100573.28;;;3.77
42197;BMP280;27866;48.146;17.098;2022-12-17T15:32:55;100580.16;;;3.75
42197;BMP280;27866;48.146;17.098;2022-12-17T15:37:07;100584.44;;;3.75
42197;BMP280;27866;48.146;17.098;2022-12-17T15:41:18;100599.00;;;3.73
42197;BMP280;27866;48.146;17.098;2022-12-17T15:45:50;100613.69;;;3.68
42197;BMP280;27866;48.146;17.098;2022-12-17T15:50:03;100608.72;;;3.62
42197;BMP280;27866;48.146;17.098;2022-12-17T15:54:15;100607.19;;;3.57
42197;BMP280;27866;48.146;17.098;2022-12-17T15:58:26;100620.09;;;3.52
42197;BMP280;27866;48.146;17.098;2022-12-17T16:02:37;100618.59;;;3.46
42197;BMP280;27866;48.146;17.098;2022-12-17T16:06:49;100634.06;;;3.41
42197;BMP280;27866;48.146;17.098;2022-12-17T16:11:00;100642.75;;;3.36
42197;BMP280;27866;48.146;17.098;2022-12-17T16:15:15;100649.59;;;3.35
42197;BMP280;27866;48.146;17.098;2022-12-17T16:19:26;100664.09;;;3.35
42197;BMP280;27866;48.146;17.098;2022-12-17T16:23:37;100657.38;;;3.31
42197;BMP280;27866;48.146;17.098;2022-12-17T16:27:49;100676.19;;;3.30
42197;BMP280;27866;48.146;17.098;2022-12-17T16:32:00;100670.31;;;3.25
42197;BMP280;27866;48.146;17.098;2022-12-17T16:36:15;100705.41;;;3.22
42197;BMP280;27866;48.146;17.098;2022-12-17T16:40:26;100721.69;;;3.18
42197;BMP280;27866;48.146;17.098;2022-12-17T16:44:38;100723.50;;;3.15
42197;BMP280;27866;48.146;17.098;2022-12-17T16:48:49;100729.56;;;3.11
42197;BMP280;27866;48.146;17.098;2022-12-17T16:53:01;100744.19;;;3.06
42197;BMP280;27866;48.146;17.098;2022-12-17T16:57:12;100741.69;;;3.03
42197;BMP280;27866;48.146;17.098;2022-12-17T17:01:26;100750.25;;;3.02
42197;BMP280;27866;48.146;17.098;2022-12-17T17:05:39;100757.03;;;3.03
42197;BMP280;27866;48.146;17.098;2022-12-17T17:09:50;100758.06;;;2.96
42197;BMP280;27866;48.146;17.098;2022-12-17T17:14:02;100753.91;;;2.92
42197;BMP280;27866;48.146;17.098;2022-12-17T17:18:13;100768.47;;;2.89
42197;BMP280;27866;48.146;17.098;2022-12-17T17:22:24;100772.00;;;2.85
42197;BMP280;27866;48.146;17.098;2022-12-17T17:26:36;100766.06;;;2.83
42197;BMP280;27866;48.146;17.098;2022-12-17T17:30:47;100786.53;;;2.82
42197;BMP280;27866;48.146;17.098;2022-12-17T17:34:59;100784.06;;;2.79
42197;BMP280;27866;48.146;17.098;2022-12-17T17:39:10;100783.34;;;2.73
42197;BMP280;27866;48.146;17.098;2022-12-17T17:43:21;100797.03;;;2.70
42197;BMP280;27866;48.146;17.098;2022-12-17T17:47:32;100804.78;;;2.67
42197;BMP280;27866;48.146;17.098;2022-12-17T17:51:43;100804.03;;;2.62
42197;BMP280;27866;48.146;17.098;2022-12-17T17:56:03;100824.53;;;2.60
42197;BMP280;27866;48.146;17.098;2022-12-17T18:00:15;100818.66;;;2.56
42197;BMP280;27866;48.146;17.098;2022-12-17T18:04:26;100826.38;;;2.55
42197;BMP280;27866;48.146;17.098;2022-12-17T18:08:37;100824.72;;;2.52
42197;BMP280;27866;48.146;17.098;2022-12-17T18:12:49;100828.94;;;2.53
42197;BMP280;27866;48.146;17.098;2022-12-17T18:17:19;100835.78;;;2.53
42197;BMP280;27866;48.146;17.098;2022-12-17T18:21:31;100849.44;;;2.50
42197;BMP280;27866;48.146;17.098;2022-12-17T18:25:42;100859.72;;;2.49
42197;BMP280;27866;48.146;17.098;2022-12-17T18:29:53;100867.38;;;2.49
42197;BMP280;27866;48.146;17.098;2022-12-17T18:34:05;100875.94;;;2.46
42197;BMP280;27866;48.146;17.098;2022-12-17T18:38:16;100896.44;;;2.45
42197;BMP280;27866;48.146;17.098;2022-12-17T18:42:27;100886.22;;;2.45
42197;BMP280;27866;48.146;17.098;2022-12-17T18:46:58;100909.25;;;2.42
42197;BMP280;27866;48.146;17.098;2022-12-17T18:51:09;100915.06;;;2.50
42197;BMP280;27866;48.146;17.098;2022-12-17T18:55:20;100923.63;;;2.49
42197;BMP280;27866;48.146;17.098;2022-12-17T18:59:32;100933.94;;;2.43
42197;BMP280;27866;48.146;17.098;2022-12-17T19:03:44;100939.94;;;2.41
42197;BMP280;27866;48.146;17.098;2022-12-17T19:07:55;100953.63;;;2.40
42197;BMP280;27866;48.146;17.098;2022-12-17T19:12:08;100947.72;;;2.35
42197;BMP280;27866;48.146;17.098;2022-12-17T19:16:23;100957.19;;;2.30
42197;BMP280;27866;48.146;17.098;2022-12-17T19:20:34;100963.94;;;2.32
42197;BMP280;27866;48.146;17.098;2022-12-17T19:24:45;100959.75;;;2.29
42197;BMP280;27866;48.146;17.098;2022-12-17T19:28:58;100955.56;;;2.26
42197;BMP280;27866;48.146;17.098;2022-12-17T19:33:10;100953.91;;;2.24
42197;BMP280;27866;48.146;17.098;2022-12-17T19:37:21;100960.69;;;2.26
42197;BMP280;27866;48.146;17.098;2022-12-17T19:41:33;100961.56;;;2.24
42197;BMP280;27866;48.146;17.098;2022-12-17T19:45:44;100958.16;;;2.25
42197;BMP280;27866;48.146;17.098;2022-12-17T19:49:55;100958.97;;;2.25
42197;BMP280;27866;48.146;17.098;2022-12-17T19:54:06;100963.25;;;2.25
42197;BMP280;27866;48.146;17.098;2022-12-17T19:58:18;100960.75;;;2.22
42197;BMP280;27866;48.146;17.098;2022-12-17T20:02:29;100973.56;;;2.20
42197;BMP280;27866;48.146;17.098;2022-12-17T20:06:40;100983.81;;;2.19
42197;BMP280;27866;48.146;17.098;2022-12-17T20:10:52;100985.53;;;2.17
42197;BMP280;27866;48.146;17.098;2022-12-17T20:15:03;101003.47;;;2.14
42197;BMP280;27866;48.146;17.098;2022-12-17T20:19:37;101011.19;;;2.11
42197;BMP280;27866;48.146;17.098;2022-12-17T20:23:49;101012.09;;;2.07
42197;BMP280;27866;48.146;17.098;2022-12-17T20:28:00;101017.25;;;2.04
42197;BMP280;27866;48.146;17.098;2022-12-17T20:32:11;101013.91;;;2.01
42197;BMP280;27866;48.146;17.098;2022-12-17T20:36:22;101030.91;;;2.01
42197;BMP280;27866;48.146;17.098;2022-12-17T20:40:38;101031.78;;;2.01
42197;BMP280;27866;48.146;17.098;2022-12-17T20:44:49;101041.13;;;2.01
42197;BMP280;27866;48.146;17.098;2022-12-17T20:49:01;101045.38;;;2.03
42197;BMP280;27866;48.146;17.098;2022-12-17T20:53:13;101046.19;;;2.05
42197;BMP280;27866;48.146;17.098;2022-12-17T20:57:24;101048.72;;;2.06
42197;BMP280;27866;48.146;17.098;2022-12-17T21:01:36;101040.13;;;2.10
42197;BMP280;27866;48.146;17.098;2022-12-17T21:05:47;101051.25;;;2.08
42197;BMP280;27866;48.146;17.098;2022-12-17T21:09:58;101054.72;;;2.02
42197;BMP280;27866;48.146;17.098;2022-12-17T21:14:15;101057.34;;;2.00
42197;BMP280;27866;48.146;17.098;2022-12-17T21:18:28;101059.94;;;1.98
42197;BMP280;27866;48.146;17.098;2022-12-17T21:22:40;101065.84;;;1.99
42197;BMP280;27866;48.146;17.098;2022-12-17T21:26:51;101067.59;;;1.97
42197;BMP280;27866;48.146;17.098;2022-12-17T21:31:03;101082.13;;;1.93
42197;BMP280;27866;48.146;17.098;2022-12-17T21:35:15;101101.72;;;1.94
42197;BMP280;27866;48.146;17.098;2022-12-17T21:39:27;101108.50;;;1.94
42197;BMP280;27866;48.146;17.098;2022-12-17T21:43:39;101115.34;;;1.92
42197;BMP280;27866;48.146;17.098;2022-12-17T21:47:50;101120.50;;;1.90
42197;BMP280;27866;48.146;17.098;2022-12-17T21:52:02;101113.69;;;1.88
42197;BMP280;27866;48.146;17.098;2022-12-17T21:56:17;101126.50;;;1.87
42197;BMP280;27866;48.146;17.098;2022-12-17T22:00:29;101129.03;;;1.88
42197;BMP280;27866;48.146;17.098;2022-12-17T22:04:40;101137.53;;;1.87
42197;BMP280;27866;48.146;17.098;2022-12-17T22:08:51;101137.53;;;1.87
42197;BMP280;27866;48.146;17.098;2022-12-17T22:13:02;101136.75;;;1.85
42197;BMP280;27866;48.146;17.098;2022-12-17T22:17:32;101131.63;;;1.85
42197;BMP280;27866;48.146;17.098;2022-12-17T22:21:44;101121.41;;;1.84
42197;BMP280;27866;48.146;17.098;2022-12-17T22:25:56;101119.72;;;1.84
42197;BMP280;27866;48.146;17.098;2022-12-17T22:30:14;101112.94;;;1.82
42197;BMP280;27866;48.146;17.098;2022-12-17T22:34:45;101124.00;;;1.82
42197;BMP280;27866;48.146;17.098;2022-12-17T22:39:07;101124.88;;;1.80
42197;BMP280;27866;48.146;17.098;2022-12-17T22:43:18;101136.00;;;1.77
42197;BMP280;27866;48.146;17.098;2022-12-17T22:47:42;101133.47;;;1.74
42197;BMP280;27866;48.146;17.098;2022-12-17T22:51:53;101135.22;;;1.71
42197;BMP280;27866;48.146;17.098;2022-12-17T22:56:05;101132.66;;;1.71
42197;BMP280;27866;48.146;17.098;2022-12-17T23:00:24;101141.19;;;1.69
42197;BMP280;27866;48.146;17.098;2022-12-17T23:04:44;101147.16;;;1.66
42197;BMP280;27866;48.146;17.098;2022-12-17T23:08:56;101151.47;;;1.64
42197;BMP280;27866;48.146;17.098;2022-12-17T23:13:08;101160.84;;;1.64
42197;BMP280;27866;48.146;17.098;2022-12-17T23:17:20;101154.03;;;1.63
42197;BMP280;27866;48.146;17.098;2022-12-17T23:21:31;101149.78;;;1.63
42197;BMP280;27866;48.146;17.098;2022-12-17T23:25:42;101157.38;;;1.66
42197;BMP280;27866;48.146;17.098;2022-12-17T23:29:53;101163.38;;;1.65
42197;BMP280;27866;48.146;17.098;2022-12-17T23:34:05;101160.84;;;1.64
42197;BMP280;27866;48.146;17.098;2022-12-17T23:38:17;101167.69;;;1.60
42197;BMP280;27866;48.146;17.098;2022-12-17T23:42:28;101188.94;;;1.61
42197;BMP280;27866;48.146;17.098;2022-12-17T23:46:39;101195.81;;;1.56
42197;BMP280;27866;48.146;17.098;2022-12-17T23:50:50;101193.25;;;1.56
42197;BMP280;27866;48.146;17.098;2022-12-17T23:55:01;101187.34;;;1.51
42197;BMP280;27866;48.146;17.098;2022-12-17T23:59:13;101192.44;;;1.51
